Morning Sun, Iowa
Current Conditions -  °F | °C
As of 1:55 PM on Saturday 25 Oct 2014 (Local Time) from KMPZ Reporting Station
Clear Clear  
Wind Chill: 71°   Ceiling: Unl
Heat Index: 71°   Visibility: 10mi
Dew Point: 39°   Wind: 8mph
Humidity: 31%   Direction: 330°NNW
Pressure: 30.04"   Gusts: NA
Location:  41.1°N, 91.26°W
Report Text: KMPZ 251855Z AUTO 33007KT 10SM CLR 22/04 A3004 RMK AO2 T02190038
Loading
Personal Weather Stations






























Interactive Weather Map
Tropical Storm Tracking
New forecast layout! Learn more

10-Day Weather Forecast

Advertisements
Track Severe Weather on mobile